sensor_id;sensor_type;location;lat;lon;timestamp;P1;durP1;ratioP1;P2;durP2;ratioP2
21941;SDS011;11135;54.192;15.670;2022-12-11T00:00:37;14.40;;;8.00;;
21941;SDS011;11135;54.192;15.670;2022-12-11T00:04:03;18.35;;;9.35;;
21941;SDS011;11135;54.192;15.670;2022-12-11T00:07:09;18.10;;;10.63;;
21941;SDS011;11135;54.192;15.670;2022-12-11T00:10:15;13.70;;;7.45;;
21941;SDS011;11135;54.192;15.670;2022-12-11T00:13:23;16.90;;;9.27;;
21941;SDS011;11135;54.192;15.670;2022-12-11T00:16:28;16.58;;;8.63;;
21941;SDS011;11135;54.192;15.670;2022-12-11T00:19:33;15.55;;;8.50;;
21941;SDS011;11135;54.192;15.670;2022-12-11T00:22:39;15.18;;;8.77;;
21941;SDS011;11135;54.192;15.670;2022-12-11T00:25:45;16.15;;;8.57;;
21941;SDS011;11135;54.192;15.670;2022-12-11T00:28:55;13.52;;;7.28;;
21941;SDS011;11135;54.192;15.670;2022-12-11T00:32:01;20.65;;;10.15;;
21941;SDS011;11135;54.192;15.670;2022-12-11T00:35:07;17.10;;;9.02;;
21941;SDS011;11135;54.192;15.670;2022-12-11T00:38:14;14.10;;;7.97;;
21941;SDS011;11135;54.192;15.670;2022-12-11T00:41:20;16.05;;;9.35;;
21941;SDS011;11135;54.192;15.670;2022-12-11T00:44:28;15.40;;;8.82;;
21941;SDS011;11135;54.192;15.670;2022-12-11T00:47:34;16.90;;;9.90;;
21941;SDS011;11135;54.192;15.670;2022-12-11T00:50:40;14.85;;;8.70;;
21941;SDS011;11135;54.192;15.670;2022-12-11T00:53:45;17.58;;;9.93;;
21941;SDS011;11135;54.192;15.670;2022-12-11T00:56:54;18.42;;;9.15;;
21941;SDS011;11135;54.192;15.670;2022-12-11T01:00:01;18.27;;;9.60;;
21941;SDS011;11135;54.192;15.670;2022-12-11T01:03:09;16.80;;;9.18;;
21941;SDS011;11135;54.192;15.670;2022-12-11T01:06:15;16.30;;;9.00;;
21941;SDS011;11135;54.192;15.670;2022-12-11T01:09:24;15.60;;;8.93;;
21941;SDS011;11135;54.192;15.670;2022-12-11T01:12:45;10.30;;;6.63;;
21941;SDS011;11135;54.192;15.670;2022-12-11T01:15:54;16.88;;;8.93;;
21941;SDS011;11135;54.192;15.670;2022-12-11T01:18:59;13.82;;;9.20;;
21941;SDS011;11135;54.192;15.670;2022-12-11T01:22:04;16.48;;;9.20;;
21941;SDS011;11135;54.192;15.670;2022-12-11T01:25:10;14.20;;;8.70;;
21941;SDS011;11135;54.192;15.670;2022-12-11T01:28:17;15.30;;;8.68;;
21941;SDS011;11135;54.192;15.670;2022-12-11T01:31:25;16.02;;;8.73;;
21941;SDS011;11135;54.192;15.670;2022-12-11T01:34:31;15.73;;;8.88;;
21941;SDS011;11135;54.192;15.670;2022-12-11T01:37:36;15.98;;;9.00;;
21941;SDS011;11135;54.192;15.670;2022-12-11T01:40:45;12.52;;;7.47;;
21941;SDS011;11135;54.192;15.670;2022-12-11T01:43:57;16.23;;;8.32;;
21941;SDS011;11135;54.192;15.670;2022-12-11T01:47:05;15.75;;;8.90;;
21941;SDS011;11135;54.192;15.670;2022-12-11T01:50:10;13.90;;;8.27;;
21941;SDS011;11135;54.192;15.670;2022-12-11T01:53:21;14.52;;;8.85;;
21941;SDS011;11135;54.192;15.670;2022-12-11T01:56:28;13.15;;;7.30;;
21941;SDS011;11135;54.192;15.670;2022-12-11T01:59:38;15.52;;;7.85;;
21941;SDS011;11135;54.192;15.670;2022-12-11T02:02:47;13.10;;;7.68;;
21941;SDS011;11135;54.192;15.670;2022-12-11T02:05:57;14.25;;;8.77;;
21941;SDS011;11135;54.192;15.670;2022-12-11T02:09:03;14.45;;;8.55;;
21941;SDS011;11135;54.192;15.670;2022-12-11T02:12:13;13.82;;;8.13;;
21941;SDS011;11135;54.192;15.670;2022-12-11T02:15:22;16.45;;;8.50;;
21941;SDS011;11135;54.192;15.670;2022-12-11T02:18:33;15.50;;;9.23;;
21941;SDS011;11135;54.192;15.670;2022-12-11T02:21:44;14.45;;;7.88;;
21941;SDS011;11135;54.192;15.670;2022-12-11T02:24:57;16.00;;;8.38;;
21941;SDS011;11135;54.192;15.670;2022-12-11T02:28:18;16.15;;;8.55;;
21941;SDS011;11135;54.192;15.670;2022-12-11T02:31:28;13.23;;;8.05;;
21941;SDS011;11135;54.192;15.670;2022-12-11T02:34:36;14.77;;;8.30;;
21941;SDS011;11135;54.192;15.670;2022-12-11T02:37:45;13.45;;;7.80;;
21941;SDS011;11135;54.192;15.670;2022-12-11T02:40:51;13.43;;;7.88;;
21941;SDS011;11135;54.192;15.670;2022-12-11T02:44:02;13.07;;;7.05;;
21941;SDS011;11135;54.192;15.670;2022-12-11T02:47:10;14.18;;;8.13;;
21941;SDS011;11135;54.192;15.670;2022-12-11T02:50:17;14.15;;;7.55;;
21941;SDS011;11135;54.192;15.670;2022-12-11T02:53:25;13.23;;;7.32;;
21941;SDS011;11135;54.192;15.670;2022-12-11T02:56:35;14.77;;;8.25;;
21941;SDS011;11135;54.192;15.670;2022-12-11T02:59:46;12.07;;;6.93;;
21941;SDS011;11135;54.192;15.670;2022-12-11T03:02:55;12.05;;;6.50;;
21941;SDS011;11135;54.192;15.670;2022-12-11T03:06:00;10.75;;;6.78;;
21941;SDS011;11135;54.192;15.670;2022-12-11T03:09:05;12.15;;;6.22;;
21941;SDS011;11135;54.192;15.670;2022-12-11T03:12:12;12.88;;;6.90;;
21941;SDS011;11135;54.192;15.670;2022-12-11T03:15:22;13.52;;;7.78;;
21941;SDS011;11135;54.192;15.670;2022-12-11T03:18:33;11.60;;;6.85;;
21941;SDS011;11135;54.192;15.670;2022-12-11T03:21:43;10.98;;;6.25;;
21941;SDS011;11135;54.192;15.670;2022-12-11T03:24:50;14.30;;;6.97;;
21941;SDS011;11135;54.192;15.670;2022-12-11T03:27:56;10.43;;;6.68;;
21941;SDS011;11135;54.192;15.670;2022-12-11T03:31:06;10.90;;;5.47;;
21941;SDS011;11135;54.192;15.670;2022-12-11T03:34:17;12.63;;;6.57;;
21941;SDS011;11135;54.192;15.670;2022-12-11T03:37:23;13.68;;;7.43;;
21941;SDS011;11135;54.192;15.670;2022-12-11T03:40:31;12.38;;;7.10;;
21941;SDS011;11135;54.192;15.670;2022-12-11T03:43:37;12.48;;;6.70;;
21941;SDS011;11135;54.192;15.670;2022-12-11T03:46:45;11.93;;;7.18;;
21941;SDS011;11135;54.192;15.670;2022-12-11T03:49:51;12.00;;;7.28;;
21941;SDS011;11135;54.192;15.670;2022-12-11T03:52:57;12.02;;;6.70;;
21941;SDS011;11135;54.192;15.670;2022-12-11T03:56:04;13.10;;;6.78;;
21941;SDS011;11135;54.192;15.670;2022-12-11T03:59:11;10.50;;;6.45;;
21941;SDS011;11135;54.192;15.670;2022-12-11T04:02:19;11.55;;;6.43;;
21941;SDS011;11135;54.192;15.670;2022-12-11T04:05:25;14.90;;;6.70;;
21941;SDS011;11135;54.192;15.670;2022-12-11T04:08:35;13.30;;;7.47;;
21941;SDS011;11135;54.192;15.670;2022-12-11T04:11:41;13.55;;;7.03;;
21941;SDS011;11135;54.192;15.670;2022-12-11T04:14:46;11.45;;;6.53;;
21941;SDS011;11135;54.192;15.670;2022-12-11T04:18:07;14.65;;;7.80;;
21941;SDS011;11135;54.192;15.670;2022-12-11T04:21:24;15.63;;;7.43;;
21941;SDS011;11135;54.192;15.670;2022-12-11T04:24:45;12.48;;;7.40;;
21941;SDS011;11135;54.192;15.670;2022-12-11T04:27:51;13.82;;;7.25;;
21941;SDS011;11135;54.192;15.670;2022-12-11T04:30:56;11.95;;;7.18;;
21941;SDS011;11135;54.192;15.670;2022-12-11T04:34:04;12.57;;;7.60;;
21941;SDS011;11135;54.192;15.670;2022-12-11T04:37:09;15.30;;;7.10;;
21941;SDS011;11135;54.192;15.670;2022-12-11T04:40:15;13.52;;;7.25;;
21941;SDS011;11135;54.192;15.670;2022-12-11T04:43:20;10.55;;;6.10;;
21941;SDS011;11135;54.192;15.670;2022-12-11T04:46:25;14.05;;;6.38;;
21941;SDS011;11135;54.192;15.670;2022-12-11T04:49:34;12.20;;;7.40;;
21941;SDS011;11135;54.192;15.670;2022-12-11T04:52:39;14.10;;;8.18;;
21941;SDS011;11135;54.192;15.670;2022-12-11T04:55:44;13.30;;;7.88;;
21941;SDS011;11135;54.192;15.670;2022-12-11T04:58:49;13.23;;;7.43;;
21941;SDS011;11135;54.192;15.670;2022-12-11T05:01:55;17.48;;;8.20;;
21941;SDS011;11135;54.192;15.670;2022-12-11T05:05:04;14.40;;;7.65;;
21941;SDS011;11135;54.192;15.670;2022-12-11T05:08:11;16.40;;;8.82;;
21941;SDS011;11135;54.192;15.670;2022-12-11T05:11:16;16.05;;;9.57;;
21941;SDS011;11135;54.192;15.670;2022-12-11T05:14:22;16.90;;;9.68;;
21941;SDS011;11135;54.192;15.670;2022-12-11T05:17:28;18.23;;;9.38;;
21941;SDS011;11135;54.192;15.670;2022-12-11T05:20:36;18.27;;;9.48;;
21941;SDS011;11135;54.192;15.670;2022-12-11T05:23:41;20.50;;;9.27;;
21941;SDS011;11135;54.192;15.670;2022-12-11T05:26:46;12.48;;;6.28;;
21941;SDS011;11135;54.192;15.670;2022-12-11T05:29:51;15.23;;;8.25;;
21941;SDS011;11135;54.192;15.670;2022-12-11T05:33:00;16.88;;;9.23;;
21941;SDS011;11135;54.192;15.670;2022-12-11T05:36:08;12.85;;;6.72;;
21941;SDS011;11135;54.192;15.670;2022-12-11T05:39:19;19.63;;;10.10;;
21941;SDS011;11135;54.192;15.670;2022-12-11T05:42:24;17.90;;;9.90;;
21941;SDS011;11135;54.192;15.670;2022-12-11T05:45:30;17.50;;;10.23;;
21941;SDS011;11135;54.192;15.670;2022-12-11T05:48:35;16.25;;;8.65;;
21941;SDS011;11135;54.192;15.670;2022-12-11T05:51:43;19.05;;;9.80;;
21941;SDS011;11135;54.192;15.670;2022-12-11T05:54:49;20.58;;;10.48;;
21941;SDS011;11135;54.192;15.670;2022-12-11T05:57:55;17.40;;;9.93;;
21941;SDS011;11135;54.192;15.670;2022-12-11T06:01:00;18.40;;;9.27;;
21941;SDS011;11135;54.192;15.670;2022-12-11T06:04:07;16.67;;;9.40;;
21941;SDS011;11135;54.192;15.670;2022-12-11T06:07:15;14.25;;;7.97;;
21941;SDS011;11135;54.192;15.670;2022-12-11T06:10:21;17.35;;;8.50;;
21941;SDS011;11135;54.192;15.670;2022-12-11T06:13:26;15.27;;;8.35;;
21941;SDS011;11135;54.192;15.670;2022-12-11T06:16:31;16.38;;;9.40;;
21941;SDS011;11135;54.192;15.670;2022-12-11T06:19:36;17.08;;;9.98;;
21941;SDS011;11135;54.192;15.670;2022-12-11T06:22:46;14.80;;;8.18;;
21941;SDS011;11135;54.192;15.670;2022-12-11T06:25:51;15.93;;;8.70;;
21941;SDS011;11135;54.192;15.670;2022-12-11T06:28:56;14.00;;;8.52;;
21941;SDS011;11135;54.192;15.670;2022-12-11T06:32:01;15.40;;;9.02;;
21941;SDS011;11135;54.192;15.670;2022-12-11T06:35:07;17.05;;;8.50;;
21941;SDS011;11135;54.192;15.670;2022-12-11T06:38:16;14.05;;;7.57;;
21941;SDS011;11135;54.192;15.670;2022-12-11T06:41:21;18.75;;;10.30;;
21941;SDS011;11135;54.192;15.670;2022-12-11T06:44:26;12.20;;;7.60;;
21941;SDS011;11135;54.192;15.670;2022-12-11T06:47:32;11.45;;;6.57;;
21941;SDS011;11135;54.192;15.670;2022-12-11T06:50:37;16.60;;;7.75;;
21941;SDS011;11135;54.192;15.670;2022-12-11T06:53:48;18.02;;;9.30;;
21941;SDS011;11135;54.192;15.670;2022-12-11T06:56:54;18.55;;;9.95;;
21941;SDS011;11135;54.192;15.670;2022-12-11T06:59:59;15.88;;;8.00;;
21941;SDS011;11135;54.192;15.670;2022-12-11T07:03:05;18.63;;;9.02;;
21941;SDS011;11135;54.192;15.670;2022-12-11T07:06:10;14.95;;;8.98;;
21941;SDS011;11135;54.192;15.670;2022-12-11T07:09:19;17.95;;;9.52;;
21941;SDS011;11135;54.192;15.670;2022-12-11T07:12:25;16.33;;;9.05;;
21941;SDS011;11135;54.192;15.670;2022-12-11T07:15:30;13.13;;;6.95;;
21941;SDS011;11135;54.192;15.670;2022-12-11T07:18:45;14.73;;;7.65;;
21941;SDS011;11135;54.192;15.670;2022-12-11T07:21:52;18.23;;;8.48;;
21941;SDS011;11135;54.192;15.670;2022-12-11T07:25:01;15.68;;;7.10;;
21941;SDS011;11135;54.192;15.670;2022-12-11T07:28:06;17.27;;;9.18;;
21941;SDS011;11135;54.192;15.670;2022-12-11T07:31:18;16.27;;;8.57;;
21941;SDS011;11135;54.192;15.670;2022-12-11T07:34:24;15.75;;;8.68;;
21941;SDS011;11135;54.192;15.670;2022-12-11T07:37:30;15.82;;;7.35;;
21941;SDS011;11135;54.192;15.670;2022-12-11T07:40:39;16.15;;;8.23;;
21941;SDS011;11135;54.192;15.670;2022-12-11T07:43:45;16.10;;;8.80;;
21941;SDS011;11135;54.192;15.670;2022-12-11T07:46:50;13.30;;;6.45;;
21941;SDS011;11135;54.192;15.670;2022-12-11T07:49:56;16.42;;;8.90;;
21941;SDS011;11135;54.192;15.670;2022-12-11T07:53:01;16.27;;;8.18;;
21941;SDS011;11135;54.192;15.670;2022-12-11T07:56:09;13.50;;;7.05;;
21941;SDS011;11135;54.192;15.670;2022-12-11T07:59:14;14.52;;;7.90;;
21941;SDS011;11135;54.192;15.670;2022-12-11T08:02:19;15.93;;;8.95;;
21941;SDS011;11135;54.192;15.670;2022-12-11T08:05:25;15.07;;;8.10;;
21941;SDS011;11135;54.192;15.670;2022-12-11T08:08:30;16.95;;;8.38;;
21941;SDS011;11135;54.192;15.670;2022-12-11T08:11:37;15.63;;;9.07;;
21941;SDS011;11135;54.192;15.670;2022-12-11T08:14:45;12.77;;;7.72;;
21941;SDS011;11135;54.192;15.670;2022-12-11T08:17:50;16.55;;;7.75;;
21941;SDS011;11135;54.192;15.670;2022-12-11T08:21:03;11.90;;;7.20;;
21941;SDS011;11135;54.192;15.670;2022-12-11T08:24:08;15.95;;;8.00;;
21941;SDS011;11135;54.192;15.670;2022-12-11T08:27:16;15.90;;;8.45;;
21941;SDS011;11135;54.192;15.670;2022-12-11T08:30:29;12.68;;;7.82;;
21941;SDS011;11135;54.192;15.670;2022-12-11T08:33:35;14.60;;;8.43;;
21941;SDS011;11135;54.192;15.670;2022-12-11T08:36:44;18.65;;;9.80;;
21941;SDS011;11135;54.192;15.670;2022-12-11T08:39:49;17.45;;;10.60;;
21941;SDS011;11135;54.192;15.670;2022-12-11T08:42:57;15.93;;;9.57;;
21941;SDS011;11135;54.192;15.670;2022-12-11T08:46:04;19.23;;;9.60;;
21941;SDS011;11135;54.192;15.670;2022-12-11T08:49:09;14.52;;;8.55;;
21941;SDS011;11135;54.192;15.670;2022-12-11T08:52:15;16.25;;;8.82;;
21941;SDS011;11135;54.192;15.670;2022-12-11T08:55:22;14.40;;;9.13;;
21941;SDS011;11135;54.192;15.670;2022-12-11T08:58:30;13.95;;;8.55;;
21941;SDS011;11135;54.192;15.670;2022-12-11T09:01:35;16.17;;;9.27;;
21941;SDS011;11135;54.192;15.670;2022-12-11T09:04:43;13.45;;;8.25;;
21941;SDS011;11135;54.192;15.670;2022-12-11T09:07:48;12.10;;;8.15;;
21941;SDS011;11135;54.192;15.670;2022-12-11T09:10:55;13.65;;;7.28;;
21941;SDS011;11135;54.192;15.670;2022-12-11T09:14:03;15.73;;;7.90;;
21941;SDS011;11135;54.192;15.670;2022-12-11T09:17:10;10.07;;;5.50;;
21941;SDS011;11135;54.192;15.670;2022-12-11T09:20:15;12.35;;;7.82;;
21941;SDS011;11135;54.192;15.670;2022-12-11T09:23:22;16.00;;;8.35;;
21941;SDS011;11135;54.192;15.670;2022-12-11T09:26:27;16.67;;;7.63;;
21941;SDS011;11135;54.192;15.670;2022-12-11T09:29:36;13.68;;;7.47;;
21941;SDS011;11135;54.192;15.670;2022-12-11T09:32:43;15.27;;;8.63;;
21941;SDS011;11135;54.192;15.670;2022-12-11T09:35:55;13.60;;;8.02;;
21941;SDS011;11135;54.192;15.670;2022-12-11T09:39:00;15.13;;;8.48;;
21941;SDS011;11135;54.192;15.670;2022-12-11T09:42:10;14.70;;;8.40;;
21941;SDS011;11135;54.192;15.670;2022-12-11T09:45:19;14.70;;;8.00;;
21941;SDS011;11135;54.192;15.670;2022-12-11T09:48:25;17.83;;;8.73;;
21941;SDS011;11135;54.192;15.670;2022-12-11T09:51:33;17.65;;;9.40;;
21941;SDS011;11135;54.192;15.670;2022-12-11T09:54:44;14.60;;;8.90;;
21941;SDS011;11135;54.192;15.670;2022-12-11T09:57:52;13.90;;;7.32;;
21941;SDS011;11135;54.192;15.670;2022-12-11T10:01:05;12.98;;;8.50;;
21941;SDS011;11135;54.192;15.670;2022-12-11T10:04:18;14.52;;;8.20;;
21941;SDS011;11135;54.192;15.670;2022-12-11T10:07:29;17.45;;;10.02;;
21941;SDS011;11135;54.192;15.670;2022-12-11T10:10:40;17.63;;;9.80;;
21941;SDS011;11135;54.192;15.670;2022-12-11T10:13:58;17.52;;;8.57;;
21941;SDS011;11135;54.192;15.670;2022-12-11T10:17:09;18.85;;;10.43;;
21941;SDS011;11135;54.192;15.670;2022-12-11T10:20:21;18.73;;;9.93;;
21941;SDS011;11135;54.192;15.670;2022-12-11T10:23:29;19.40;;;9.93;;
21941;SDS011;11135;54.192;15.670;2022-12-11T10:26:37;16.20;;;9.63;;
21941;SDS011;11135;54.192;15.670;2022-12-11T10:29:42;17.92;;;9.52;;
21941;SDS011;11135;54.192;15.670;2022-12-11T10:32:56;18.70;;;10.45;;
21941;SDS011;11135;54.192;15.670;2022-12-11T10:36:05;16.98;;;10.25;;
21941;SDS011;11135;54.192;15.670;2022-12-11T10:39:14;20.13;;;11.20;;
21941;SDS011;11135;54.192;15.670;2022-12-11T10:42:20;17.95;;;10.10;;
21941;SDS011;11135;54.192;15.670;2022-12-11T10:45:29;19.98;;;10.88;;
21941;SDS011;11135;54.192;15.670;2022-12-11T10:48:46;19.70;;;10.30;;
21941;SDS011;11135;54.192;15.670;2022-12-11T10:51:52;19.63;;;10.75;;
21941;SDS011;11135;54.192;15.670;2022-12-11T10:55:01;20.77;;;11.50;;
21941;SDS011;11135;54.192;15.670;2022-12-11T10:58:12;22.17;;;11.30;;
21941;SDS011;11135;54.192;15.670;2022-12-11T11:01:20;20.48;;;12.38;;
21941;SDS011;11135;54.192;15.670;2022-12-11T11:04:30;21.52;;;11.75;;
21941;SDS011;11135;54.192;15.670;2022-12-11T11:07:39;19.10;;;11.75;;
21941;SDS011;11135;54.192;15.670;2022-12-11T11:10:51;20.45;;;12.02;;
21941;SDS011;11135;54.192;15.670;2022-12-11T11:17:27;22.10;;;12.88;;
21941;SDS011;11135;54.192;15.670;2022-12-11T11:20:41;21.45;;;13.50;;
21941;SDS011;11135;54.192;15.670;2022-12-11T11:23:51;20.83;;;12.02;;
21941;SDS011;11135;54.192;15.670;2022-12-11T11:26:56;23.08;;;13.68;;
21941;SDS011;11135;54.192;15.670;2022-12-11T11:30:18;27.48;;;15.32;;
21941;SDS011;11135;54.192;15.670;2022-12-11T11:33:24;27.63;;;14.80;;
21941;SDS011;11135;54.192;15.670;2022-12-11T11:36:35;24.23;;;13.85;;
21941;SDS011;11135;54.192;15.670;2022-12-11T11:39:44;26.63;;;14.85;;
21941;SDS011;11135;54.192;15.670;2022-12-11T11:42:59;24.00;;;13.45;;
21941;SDS011;11135;54.192;15.670;2022-12-11T11:46:10;24.15;;;13.75;;
21941;SDS011;11135;54.192;15.670;2022-12-11T11:49:34;25.25;;;14.43;;
21941;SDS011;11135;54.192;15.670;2022-12-11T11:52:47;24.80;;;14.25;;
21941;SDS011;11135;54.192;15.670;2022-12-11T11:55:57;27.87;;;13.63;;
21941;SDS011;11135;54.192;15.670;2022-12-11T11:59:17;24.27;;;14.93;;
21941;SDS011;11135;54.192;15.670;2022-12-11T12:02:41;25.25;;;14.70;;
21941;SDS011;11135;54.192;15.670;2022-12-11T12:05:49;25.40;;;14.30;;
21941;SDS011;11135;54.192;15.670;2022-12-11T12:09:01;28.95;;;14.50;;
21941;SDS011;11135;54.192;15.670;2022-12-11T12:12:09;24.00;;;14.35;;
21941;SDS011;11135;54.192;15.670;2022-12-11T12:15:31;27.23;;;15.02;;
21941;SDS011;11135;54.192;15.670;2022-12-11T12:18:38;23.08;;;15.00;;
21941;SDS011;11135;54.192;15.670;2022-12-11T12:21:46;25.25;;;15.90;;
21941;SDS011;11135;54.192;15.670;2022-12-11T12:24:59;27.88;;;16.38;;
21941;SDS011;11135;54.192;15.670;2022-12-11T12:28:12;26.60;;;17.15;;
21941;SDS011;11135;54.192;15.670;2022-12-11T12:31:23;29.42;;;16.42;;
21941;SDS011;11135;54.192;15.670;2022-12-11T12:34:40;27.50;;;14.60;;
21941;SDS011;11135;54.192;15.670;2022-12-11T12:37:54;27.90;;;16.35;;
21941;SDS011;11135;54.192;15.670;2022-12-11T12:41:07;24.30;;;14.60;;
21941;SDS011;11135;54.192;15.670;2022-12-11T12:44:16;25.77;;;13.63;;
21941;SDS011;11135;54.192;15.670;2022-12-11T12:47:23;18.77;;;11.23;;
21941;SDS011;11135;54.192;15.670;2022-12-11T12:50:32;19.60;;;11.55;;
21941;SDS011;11135;54.192;15.670;2022-12-11T12:53:43;19.50;;;11.40;;
21941;SDS011;11135;54.192;15.670;2022-12-11T12:56:53;18.95;;;10.75;;
21941;SDS011;11135;54.192;15.670;2022-12-11T13:00:02;15.77;;;10.77;;
21941;SDS011;11135;54.192;15.670;2022-12-11T13:03:19;15.50;;;9.13;;
21941;SDS011;11135;54.192;15.670;2022-12-11T13:06:30;17.20;;;9.40;;
21941;SDS011;11135;54.192;15.670;2022-12-11T13:09:36;14.40;;;9.05;;
21941;SDS011;11135;54.192;15.670;2022-12-11T13:12:52;15.48;;;9.30;;
21941;SDS011;11135;54.192;15.670;2022-12-11T13:16:22;15.23;;;8.77;;
21941;SDS011;11135;54.192;15.670;2022-12-11T13:19:31;15.55;;;9.68;;
21941;SDS011;11135;54.192;15.670;2022-12-11T13:22:46;19.25;;;9.90;;
21941;SDS011;11135;54.192;15.670;2022-12-11T13:25:53;18.17;;;10.02;;
21941;SDS011;11135;54.192;15.670;2022-12-11T13:29:01;18.58;;;10.95;;
21941;SDS011;11135;54.192;15.670;2022-12-11T13:32:19;19.58;;;12.18;;
21941;SDS011;11135;54.192;15.670;2022-12-11T13:35:25;21.73;;;13.27;;
21941;SDS011;11135;54.192;15.670;2022-12-11T13:38:32;21.15;;;12.18;;
21941;SDS011;11135;54.192;15.670;2022-12-11T13:41:37;20.30;;;13.10;;
21941;SDS011;11135;54.192;15.670;2022-12-11T13:44:46;23.05;;;13.93;;
21941;SDS011;11135;54.192;15.670;2022-12-11T13:47:53;27.13;;;14.32;;
21941;SDS011;11135;54.192;15.670;2022-12-11T13:50:59;27.42;;;14.60;;
21941;SDS011;11135;54.192;15.670;2022-12-11T13:54:05;25.08;;;14.48;;
21941;SDS011;11135;54.192;15.670;2022-12-11T13:57:19;25.38;;;14.00;;
21941;SDS011;11135;54.192;15.670;2022-12-11T14:00:28;22.52;;;13.52;;
21941;SDS011;11135;54.192;15.670;2022-12-11T14:03:34;23.77;;;14.00;;
21941;SDS011;11135;54.192;15.670;2022-12-11T14:06:39;24.15;;;13.73;;
21941;SDS011;11135;54.192;15.670;2022-12-11T14:09:45;23.08;;;12.95;;
21941;SDS011;11135;54.192;15.670;2022-12-11T14:12:50;24.80;;;13.25;;
21941;SDS011;11135;54.192;15.670;2022-12-11T14:16:00;20.38;;;11.95;;
21941;SDS011;11135;54.192;15.670;2022-12-11T14:19:13;21.38;;;11.27;;
21941;SDS011;11135;54.192;15.670;2022-12-11T14:22:20;20.05;;;11.88;;
21941;SDS011;11135;54.192;15.670;2022-12-11T14:25:26;20.90;;;12.23;;
21941;SDS011;11135;54.192;15.670;2022-12-11T14:28:36;21.60;;;11.80;;
21941;SDS011;11135;54.192;15.670;2022-12-11T14:31:44;23.00;;;12.38;;
21941;SDS011;11135;54.192;15.670;2022-12-11T14:34:50;24.40;;;13.43;;
21941;SDS011;11135;54.192;15.670;2022-12-11T14:37:55;19.80;;;11.70;;
21941;SDS011;11135;54.192;15.670;2022-12-11T14:41:03;21.02;;;12.63;;
21941;SDS011;11135;54.192;15.670;2022-12-11T14:44:13;21.50;;;12.63;;
21941;SDS011;11135;54.192;15.670;2022-12-11T14:47:23;25.45;;;12.65;;
21941;SDS011;11135;54.192;15.670;2022-12-11T14:50:31;24.80;;;13.40;;
21941;SDS011;11135;54.192;15.670;2022-12-11T14:53:43;23.02;;;12.60;;
21941;SDS011;11135;54.192;15.670;2022-12-11T14:56:54;22.55;;;13.55;;
21941;SDS011;11135;54.192;15.670;2022-12-11T14:59:59;24.65;;;13.50;;
21941;SDS011;11135;54.192;15.670;2022-12-11T15:03:19;24.40;;;13.55;;
21941;SDS011;11135;54.192;15.670;2022-12-11T15:06:27;23.92;;;12.73;;
21941;SDS011;11135;54.192;15.670;2022-12-11T15:09:35;25.90;;;13.57;;
21941;SDS011;11135;54.192;15.670;2022-12-11T15:12:42;25.88;;;13.85;;
21941;SDS011;11135;54.192;15.670;2022-12-11T15:15:48;30.27;;;15.52;;
21941;SDS011;11135;54.192;15.670;2022-12-11T15:18:56;27.33;;;15.75;;
21941;SDS011;11135;54.192;15.670;2022-12-11T15:22:01;33.60;;;18.70;;
21941;SDS011;11135;54.192;15.670;2022-12-11T15:25:15;32.45;;;17.05;;
21941;SDS011;11135;54.192;15.670;2022-12-11T15:28:24;32.85;;;17.40;;
21941;SDS011;11135;54.192;15.670;2022-12-11T15:31:31;30.70;;;17.05;;
21941;SDS011;11135;54.192;15.670;2022-12-11T15:34:45;28.30;;;16.30;;
21941;SDS011;11135;54.192;15.670;2022-12-11T15:37:51;30.52;;;17.45;;
21941;SDS011;11135;54.192;15.670;2022-12-11T15:40:58;31.73;;;16.80;;
21941;SDS011;11135;54.192;15.670;2022-12-11T15:44:08;29.38;;;16.98;;
21941;SDS011;11135;54.192;15.670;2022-12-11T15:47:21;28.70;;;14.23;;
21941;SDS011;11135;54.192;15.670;2022-12-11T15:50:30;26.65;;;13.73;;
21941;SDS011;11135;54.192;15.670;2022-12-11T15:53:34;28.70;;;14.73;;
21941;SDS011;11135;54.192;15.670;2022-12-11T15:56:40;31.67;;;15.98;;
21941;SDS011;11135;54.192;15.670;2022-12-11T15:59:45;31.17;;;16.52;;
21941;SDS011;11135;54.192;15.670;2022-12-11T16:02:52;30.17;;;16.40;;
21941;SDS011;11135;54.192;15.670;2022-12-11T16:06:04;30.60;;;17.58;;
21941;SDS011;11135;54.192;15.670;2022-12-11T16:09:09;39.83;;;19.77;;
21941;SDS011;11135;54.192;15.670;2022-12-11T16:12:14;31.50;;;16.85;;
21941;SDS011;11135;54.192;15.670;2022-12-11T16:15:20;37.20;;;18.67;;
21941;SDS011;11135;54.192;15.670;2022-12-11T16:18:25;35.97;;;18.23;;
21941;SDS011;11135;54.192;15.670;2022-12-11T16:21:35;46.83;;;21.60;;
21941;SDS011;11135;54.192;15.670;2022-12-11T16:24:41;49.53;;;22.90;;
21941;SDS011;11135;54.192;15.670;2022-12-11T16:27:47;37.60;;;20.15;;
21941;SDS011;11135;54.192;15.670;2022-12-11T16:30:52;39.42;;;21.48;;
21941;SDS011;11135;54.192;15.670;2022-12-11T16:33:57;46.60;;;21.80;;
21941;SDS011;11135;54.192;15.670;2022-12-11T16:37:05;48.53;;;22.83;;
21941;SDS011;11135;54.192;15.670;2022-12-11T16:40:11;48.58;;;22.52;;
21941;SDS011;11135;54.192;15.670;2022-12-11T16:43:16;43.75;;;21.67;;
21941;SDS011;11135;54.192;15.670;2022-12-11T16:46:22;35.75;;;19.55;;
21941;SDS011;11135;54.192;15.670;2022-12-11T16:49:28;39.80;;;20.23;;
21941;SDS011;11135;54.192;15.670;2022-12-11T16:52:37;32.95;;;17.70;;
21941;SDS011;11135;54.192;15.670;2022-12-11T16:55:43;38.10;;;19.65;;
21941;SDS011;11135;54.192;15.670;2022-12-11T16:58:51;40.80;;;19.15;;
21941;SDS011;11135;54.192;15.670;2022-12-11T17:01:56;40.50;;;19.30;;
21941;SDS011;11135;54.192;15.670;2022-12-11T17:05:01;41.67;;;19.85;;
21941;SDS011;11135;54.192;15.670;2022-12-11T17:08:09;37.75;;;19.20;;
21941;SDS011;11135;54.192;15.670;2022-12-11T17:11:19;39.15;;;18.85;;
21941;SDS011;11135;54.192;15.670;2022-12-11T17:14:25;37.67;;;20.30;;
21941;SDS011;11135;54.192;15.670;2022-12-11T17:17:31;38.28;;;18.85;;
21941;SDS011;11135;54.192;15.670;2022-12-11T17:20:38;42.03;;;20.55;;
21941;SDS011;11135;54.192;15.670;2022-12-11T17:23:47;40.65;;;20.65;;
21941;SDS011;11135;54.192;15.670;2022-12-11T17:26:55;38.03;;;19.50;;
21941;SDS011;11135;54.192;15.670;2022-12-11T17:30:06;41.05;;;19.90;;
21941;SDS011;11135;54.192;15.670;2022-12-11T17:33:14;40.47;;;21.65;;
21941;SDS011;11135;54.192;15.670;2022-12-11T17:36:20;38.58;;;20.88;;
21941;SDS011;11135;54.192;15.670;2022-12-11T17:39:28;33.88;;;19.10;;
21941;SDS011;11135;54.192;15.670;2022-12-11T17:42:33;38.47;;;20.75;;
21941;SDS011;11135;54.192;15.670;2022-12-11T17:45:41;35.22;;;19.67;;
21941;SDS011;11135;54.192;15.670;2022-12-11T17:48:47;41.13;;;19.85;;
21941;SDS011;11135;54.192;15.670;2022-12-11T17:51:52;45.25;;;21.83;;
21941;SDS011;11135;54.192;15.670;2022-12-11T17:55:00;38.75;;;20.00;;
21941;SDS011;11135;54.192;15.670;2022-12-11T17:58:06;36.95;;;19.08;;
21941;SDS011;11135;54.192;15.670;2022-12-11T18:01:11;43.13;;;22.13;;
21941;SDS011;11135;54.192;15.670;2022-12-11T18:04:16;41.20;;;22.25;;
21941;SDS011;11135;54.192;15.670;2022-12-11T18:07:26;44.80;;;22.70;;
21941;SDS011;11135;54.192;15.670;2022-12-11T18:10:34;42.55;;;22.63;;
21941;SDS011;11135;54.192;15.670;2022-12-11T18:13:39;41.55;;;20.70;;
21941;SDS011;11135;54.192;15.670;2022-12-11T18:16:46;42.50;;;21.33;;